sensor_id;sensor_type;location;lat;lon;timestamp;temperature;humidity
8253;DHT22;61313;48.396;10.008;2022-12-29T00:02:21;6.30;99.90
8253;DHT22;61313;48.396;10.008;2022-12-29T00:04:46;6.40;99.90
8253;DHT22;61313;48.396;10.008;2022-12-29T00:07:17;6.40;99.90
8253;DHT22;61313;48.396;10.008;2022-12-29T00:09:43;6.50;99.90
8253;DHT22;61313;48.396;10.008;2022-12-29T00:12:09;6.40;99.90
8253;DHT22;61313;48.396;10.008;2022-12-29T00:14:35;6.40;99.90
8253;DHT22;61313;48.396;10.008;2022-12-29T00:17:19;6.40;99.90
8253;DHT22;61313;48.396;10.008;2022-12-29T00:19:45;6.40;99.90
8253;DHT22;61313;48.396;10.008;2022-12-29T00:22:29;6.50;99.90
8253;DHT22;61313;48.396;10.008;2022-12-29T00:25:13;6.50;99.90
8253;DHT22;61313;48.396;10.008;2022-12-29T00:27:58;6.60;99.90
8253;DHT22;61313;48.396;10.008;2022-12-29T00:30:42;6.70;99.90
8253;DHT22;61313;48.396;10.008;2022-12-29T00:33:29;6.70;99.90
8253;DHT22;61313;48.396;10.008;2022-12-29T00:39:02;6.80;99.90
8253;DHT22;61313;48.396;10.008;2022-12-29T00:41:47;6.80;99.90
8253;DHT22;61313;48.396;10.008;2022-12-29T00:44:32;6.80;99.90
8253;DHT22;61313;48.396;10.008;2022-12-29T00:46:57;6.70;99.90
8253;DHT22;61313;48.396;10.008;2022-12-29T00:49:27;6.80;99.90
8253;DHT22;61313;48.396;10.008;2022-12-29T00:54:26;6.70;99.90
8253;DHT22;61313;48.396;10.008;2022-12-29T00:56:52;6.80;99.90
8253;DHT22;61313;48.396;10.008;2022-12-29T00:59:18;6.80;99.90
8253;DHT22;61313;48.396;10.008;2022-12-29T01:01:45;6.70;99.90
8253;DHT22;61313;48.396;10.008;2022-12-29T01:04:11;6.70;99.90
8253;DHT22;61313;48.396;10.008;2022-12-29T01:06:39;6.70;99.90
8253;DHT22;61313;48.396;10.008;2022-12-29T01:09:05;6.70;99.90
8253;DHT22;61313;48.396;10.008;2022-12-29T01:11:50;6.70;99.90
8253;DHT22;61313;48.396;10.008;2022-12-29T01:14:17;6.70;99.90
8253;DHT22;61313;48.396;10.008;2022-12-29T01:16:44;6.70;99.90
8253;DHT22;61313;48.396;10.008;2022-12-29T01:19:10;6.70;99.90
8253;DHT22;61313;48.396;10.008;2022-12-29T01:21:35;6.60;99.90
8253;DHT22;61313;48.396;10.008;2022-12-29T01:24:01;6.60;99.90
8253;DHT22;61313;48.396;10.008;2022-12-29T01:26:27;6.70;99.90
8253;DHT22;61313;48.396;10.008;2022-12-29T01:28:53;6.80;99.90
8253;DHT22;61313;48.396;10.008;2022-12-29T01:31:18;6.80;99.90
8253;DHT22;61313;48.396;10.008;2022-12-29T01:33:44;6.80;99.90
8253;DHT22;61313;48.396;10.008;2022-12-29T01:36:13;6.70;99.90
8253;DHT22;61313;48.396;10.008;2022-12-29T01:38:39;6.80;99.90
8253;DHT22;61313;48.396;10.008;2022-12-29T01:41:06;6.90;99.90
8253;DHT22;61313;48.396;10.008;2022-12-29T01:43:48;6.80;99.90
8253;DHT22;61313;48.396;10.008;2022-12-29T01:46:30;6.80;99.90
8253;DHT22;61313;48.396;10.008;2022-12-29T01:49:03;6.80;99.90
8253;DHT22;61313;48.396;10.008;2022-12-29T01:51:31;6.80;99.90
8253;DHT22;61313;48.396;10.008;2022-12-29T01:53:59;6.80;99.90
8253;DHT22;61313;48.396;10.008;2022-12-29T01:56:27;6.90;99.90
8253;DHT22;61313;48.396;10.008;2022-12-29T01:59:06;6.90;93.60
8253;DHT22;61313;48.396;10.008;2022-12-29T02:01:34;7.00;47.70
8253;DHT22;61313;48.396;10.008;2022-12-29T02:04:00;6.90;21.30
8253;DHT22;61313;48.396;10.008;2022-12-29T02:06:31;6.90;14.20
8253;DHT22;61313;48.396;10.008;2022-12-29T02:08:59;6.80;35.90
8253;DHT22;61313;48.396;10.008;2022-12-29T02:11:26;6.90;4.00
8253;DHT22;61313;48.396;10.008;2022-12-29T02:13:53;6.80;2.50
8253;DHT22;61313;48.396;10.008;2022-12-29T02:32:52;6.90;1.00
8253;DHT22;61313;48.396;10.008;2022-12-29T02:44:54;6.90;1.00
8253;DHT22;61313;48.396;10.008;2022-12-29T02:47:26;6.90;1.00
8253;DHT22;61313;48.396;10.008;2022-12-29T02:52:36;7.00;1.00
8253;DHT22;61313;48.396;10.008;2022-12-29T02:55:04;7.00;1.00
8253;DHT22;61313;48.396;10.008;2022-12-29T02:57:34;7.00;1.00
8253;DHT22;61313;48.396;10.008;2022-12-29T03:00:13;6.90;1.00
8253;DHT22;61313;48.396;10.008;2022-12-29T03:05:28;6.90;7.50
8253;DHT22;61313;48.396;10.008;2022-12-29T03:08:19;7.00;10.70
8253;DHT22;61313;48.396;10.008;2022-12-29T03:19:23;7.00;15.90
8253;DHT22;61313;48.396;10.008;2022-12-29T03:22:09;7.00;22.40
8253;DHT22;61313;48.396;10.008;2022-12-29T03:25:07;7.10;1.00
8253;DHT22;61313;48.396;10.008;2022-12-29T03:27:39;7.00;1.00
8253;DHT22;61313;48.396;10.008;2022-12-29T03:30:06;7.00;1.00
8253;DHT22;61313;48.396;10.008;2022-12-29T03:32:36;7.00;1.00
8253;DHT22;61313;48.396;10.008;2022-12-29T03:35:04;7.00;1.00
8253;DHT22;61313;48.396;10.008;2022-12-29T03:37:36;7.00;1.00
8253;DHT22;61313;48.396;10.008;2022-12-29T03:40:04;7.00;1.00
8253;DHT22;61313;48.396;10.008;2022-12-29T03:42:33;7.10;1.00
8253;DHT22;61313;48.396;10.008;2022-12-29T03:44:59;7.10;1.00
8253;DHT22;61313;48.396;10.008;2022-12-29T03:47:25;7.10;1.00
8253;DHT22;61313;48.396;10.008;2022-12-29T03:49:51;7.20;1.00
8253;DHT22;61313;48.396;10.008;2022-12-29T03:52:17;7.20;1.00
8253;DHT22;61313;48.396;10.008;2022-12-29T03:54:43;7.20;1.00
8253;DHT22;61313;48.396;10.008;2022-12-29T03:57:10;7.20;1.00
8253;DHT22;61313;48.396;10.008;2022-12-29T03:59:36;7.10;1.00
8253;DHT22;61313;48.396;10.008;2022-12-29T04:02:01;7.20;1.00
8253;DHT22;61313;48.396;10.008;2022-12-29T04:04:27;7.20;1.00
8253;DHT22;61313;48.396;10.008;2022-12-29T04:06:53;7.20;1.00
8253;DHT22;61313;48.396;10.008;2022-12-29T04:09:18;7.40;1.00
8253;DHT22;61313;48.396;10.008;2022-12-29T04:11:44;7.40;1.00
8253;DHT22;61313;48.396;10.008;2022-12-29T04:14:10;7.30;1.00
8253;DHT22;61313;48.396;10.008;2022-12-29T04:16:35;7.40;1.00
8253;DHT22;61313;48.396;10.008;2022-12-29T04:19:04;7.40;1.00
8253;DHT22;61313;48.396;10.008;2022-12-29T04:21:30;7.40;1.00
8253;DHT22;61313;48.396;10.008;2022-12-29T04:23:56;7.40;1.00
8253;DHT22;61313;48.396;10.008;2022-12-29T04:26:22;7.30;1.00
8253;DHT22;61313;48.396;10.008;2022-12-29T04:28:47;7.30;1.00
8253;DHT22;61313;48.396;10.008;2022-12-29T04:31:13;7.30;1.00
8253;DHT22;61313;48.396;10.008;2022-12-29T04:33:39;7.40;1.00
8253;DHT22;61313;48.396;10.008;2022-12-29T04:36:05;7.40;1.00
8253;DHT22;61313;48.396;10.008;2022-12-29T04:38:30;7.40;1.00
8253;DHT22;61313;48.396;10.008;2022-12-29T04:40:59;7.40;1.00
8253;DHT22;61313;48.396;10.008;2022-12-29T04:43:25;7.40;1.00
8253;DHT22;61313;48.396;10.008;2022-12-29T04:45:51;7.40;1.00
8253;DHT22;61313;48.396;10.008;2022-12-29T04:48:16;7.40;1.00
8253;DHT22;61313;48.396;10.008;2022-12-29T04:50:42;7.40;1.00
8253;DHT22;61313;48.396;10.008;2022-12-29T04:53:08;7.40;1.00
8253;DHT22;61313;48.396;10.008;2022-12-29T04:55:34;7.60;1.00
8253;DHT22;61313;48.396;10.008;2022-12-29T04:58:00;7.60;1.00
8253;DHT22;61313;48.396;10.008;2022-12-29T05:00:26;7.50;1.00
8253;DHT22;61313;48.396;10.008;2022-12-29T05:02:51;7.40;1.00
8253;DHT22;61313;48.396;10.008;2022-12-29T05:05:17;7.30;1.00
8253;DHT22;61313;48.396;10.008;2022-12-29T05:07:43;7.30;1.00
8253;DHT22;61313;48.396;10.008;2022-12-29T05:10:10;7.30;1.00
8253;DHT22;61313;48.396;10.008;2022-12-29T05:12:37;7.20;1.00
8253;DHT22;61313;48.396;10.008;2022-12-29T05:15:03;7.40;1.00
8253;DHT22;61313;48.396;10.008;2022-12-29T05:17:29;7.20;1.00
8253;DHT22;61313;48.396;10.008;2022-12-29T05:19:55;7.10;1.00
8253;DHT22;61313;48.396;10.008;2022-12-29T05:22:21;7.00;1.00
8253;DHT22;61313;48.396;10.008;2022-12-29T05:24:47;7.20;1.00
8253;DHT22;61313;48.396;10.008;2022-12-29T05:27:12;7.20;1.00
8253;DHT22;61313;48.396;10.008;2022-12-29T05:29:38;7.10;1.00
8253;DHT22;61313;48.396;10.008;2022-12-29T05:32:04;7.10;1.00
8253;DHT22;61313;48.396;10.008;2022-12-29T05:34:29;7.20;1.00
8253;DHT22;61313;48.396;10.008;2022-12-29T05:36:55;7.10;1.00
8253;DHT22;61313;48.396;10.008;2022-12-29T05:39:21;7.20;1.00
8253;DHT22;61313;48.396;10.008;2022-12-29T05:41:46;7.20;1.00
8253;DHT22;61313;48.396;10.008;2022-12-29T05:44:12;7.20;1.00
8253;DHT22;61313;48.396;10.008;2022-12-29T05:46:38;7.20;1.00
8253;DHT22;61313;48.396;10.008;2022-12-29T05:49:05;7.00;1.00
8253;DHT22;61313;48.396;10.008;2022-12-29T05:51:31;6.90;1.00
8253;DHT22;61313;48.396;10.008;2022-12-29T05:53:56;6.90;1.00
8253;DHT22;61313;48.396;10.008;2022-12-29T05:56:23;6.80;1.00
8253;DHT22;61313;48.396;10.008;2022-12-29T05:58:49;6.80;1.00
8253;DHT22;61313;48.396;10.008;2022-12-29T06:01:14;6.80;1.00
8253;DHT22;61313;48.396;10.008;2022-12-29T06:03:40;6.80;1.00
8253;DHT22;61313;48.396;10.008;2022-12-29T06:06:06;6.90;1.00
8253;DHT22;61313;48.396;10.008;2022-12-29T06:08:32;7.00;1.00
8253;DHT22;61313;48.396;10.008;2022-12-29T06:10:58;7.00;1.00
8253;DHT22;61313;48.396;10.008;2022-12-29T06:13:24;6.90;1.00
8253;DHT22;61313;48.396;10.008;2022-12-29T06:15:50;7.00;1.00
8253;DHT22;61313;48.396;10.008;2022-12-29T06:18:16;7.00;1.00
8253;DHT22;61313;48.396;10.008;2022-12-29T06:20:41;7.00;1.00
8253;DHT22;61313;48.396;10.008;2022-12-29T06:23:07;7.00;1.00
8253;DHT22;61313;48.396;10.008;2022-12-29T06:25:33;7.00;1.00
8253;DHT22;61313;48.396;10.008;2022-12-29T06:28:01;7.10;1.00
8253;DHT22;61313;48.396;10.008;2022-12-29T06:30:27;7.10;1.00
8253;DHT22;61313;48.396;10.008;2022-12-29T06:32:53;7.00;1.00
8253;DHT22;61313;48.396;10.008;2022-12-29T06:35:20;7.00;1.00
8253;DHT22;61313;48.396;10.008;2022-12-29T06:37:48;7.10;1.00
8253;DHT22;61313;48.396;10.008;2022-12-29T06:40:14;7.00;1.00
8253;DHT22;61313;48.396;10.008;2022-12-29T06:42:39;7.00;1.00
8253;DHT22;61313;48.396;10.008;2022-12-29T06:45:05;7.00;1.00
8253;DHT22;61313;48.396;10.008;2022-12-29T06:47:33;7.10;1.00
8253;DHT22;61313;48.396;10.008;2022-12-29T06:49:59;7.00;1.00
8253;DHT22;61313;48.396;10.008;2022-12-29T06:52:24;7.10;1.00
8253;DHT22;61313;48.396;10.008;2022-12-29T06:54:50;7.10;1.00
8253;DHT22;61313;48.396;10.008;2022-12-29T06:57:16;7.10;1.00
8253;DHT22;61313;48.396;10.008;2022-12-29T06:59:42;7.10;1.00
8253;DHT22;61313;48.396;10.008;2022-12-29T07:02:12;7.00;1.00
8253;DHT22;61313;48.396;10.008;2022-12-29T07:04:40;7.10;1.00
8253;DHT22;61313;48.396;10.008;2022-12-29T07:07:05;7.10;1.00
8253;DHT22;61313;48.396;10.008;2022-12-29T07:09:31;7.10;1.00
8253;DHT22;61313;48.396;10.008;2022-12-29T07:11:57;7.20;1.00
8253;DHT22;61313;48.396;10.008;2022-12-29T07:14:23;7.40;1.00
8253;DHT22;61313;48.396;10.008;2022-12-29T07:16:48;7.30;1.00
8253;DHT22;61313;48.396;10.008;2022-12-29T07:19:14;7.60;1.00
8253;DHT22;61313;48.396;10.008;2022-12-29T07:21:40;7.40;1.00
8253;DHT22;61313;48.396;10.008;2022-12-29T07:24:05;7.30;1.00
8253;DHT22;61313;48.396;10.008;2022-12-29T07:26:31;7.20;1.00
8253;DHT22;61313;48.396;10.008;2022-12-29T07:28:57;7.30;1.00
8253;DHT22;61313;48.396;10.008;2022-12-29T07:31:23;7.60;1.00
8253;DHT22;61313;48.396;10.008;2022-12-29T07:33:49;8.60;1.00
8253;DHT22;61313;48.396;10.008;2022-12-29T07:36:16;9.70;1.00
8253;DHT22;61313;48.396;10.008;2022-12-29T07:38:42;10.70;99.90
8253;DHT22;61313;48.396;10.008;2022-12-29T07:41:09;11.30;99.90
8253;DHT22;61313;48.396;10.008;2022-12-29T07:43:35;11.30;99.90
8253;DHT22;61313;48.396;10.008;2022-12-29T07:46:00;10.70;99.90
8253;DHT22;61313;48.396;10.008;2022-12-29T07:48:26;9.70;99.90
8253;DHT22;61313;48.396;10.008;2022-12-29T07:50:53;9.00;99.90
8253;DHT22;61313;48.396;10.008;2022-12-29T07:53:19;8.60;99.90
8253;DHT22;61313;48.396;10.008;2022-12-29T07:55:44;8.30;99.90
8253;DHT22;61313;48.396;10.008;2022-12-29T07:58:10;8.30;99.90
8253;DHT22;61313;48.396;10.008;2022-12-29T08:00:36;8.40;99.90
8253;DHT22;61313;48.396;10.008;2022-12-29T08:03:03;8.40;99.90
8253;DHT22;61313;48.396;10.008;2022-12-29T08:05:33;8.40;99.90
8253;DHT22;61313;48.396;10.008;2022-12-29T08:08:00;8.50;99.90
8253;DHT22;61313;48.396;10.008;2022-12-29T08:10:25;8.60;99.90
8253;DHT22;61313;48.396;10.008;2022-12-29T08:12:51;8.50;99.90
8253;DHT22;61313;48.396;10.008;2022-12-29T08:15:17;8.40;99.90
8253;DHT22;61313;48.396;10.008;2022-12-29T08:17:42;8.40;99.90
8253;DHT22;61313;48.396;10.008;2022-12-29T08:20:08;8.30;99.90
8253;DHT22;61313;48.396;10.008;2022-12-29T08:22:34;8.20;99.90
8253;DHT22;61313;48.396;10.008;2022-12-29T08:25:00;8.30;99.90
8253;DHT22;61313;48.396;10.008;2022-12-29T08:27:26;8.30;99.90
8253;DHT22;61313;48.396;10.008;2022-12-29T08:29:51;8.20;99.90
8253;DHT22;61313;48.396;10.008;2022-12-29T08:32:18;8.30;99.90
8253;DHT22;61313;48.396;10.008;2022-12-29T08:34:43;8.30;99.90
8253;DHT22;61313;48.396;10.008;2022-12-29T08:37:09;8.30;99.90
8253;DHT22;61313;48.396;10.008;2022-12-29T08:39:35;8.40;99.90
8253;DHT22;61313;48.396;10.008;2022-12-29T08:42:01;8.40;99.90
8253;DHT22;61313;48.396;10.008;2022-12-29T08:44:26;8.50;99.90
8253;DHT22;61313;48.396;10.008;2022-12-29T08:46:52;8.40;99.90
8253;DHT22;61313;48.396;10.008;2022-12-29T08:49:18;8.40;99.90
8253;DHT22;61313;48.396;10.008;2022-12-29T08:51:43;8.50;99.90
8253;DHT22;61313;48.396;10.008;2022-12-29T08:54:09;8.50;99.90
8253;DHT22;61313;48.396;10.008;2022-12-29T08:56:34;8.50;99.90
8253;DHT22;61313;48.396;10.008;2022-12-29T08:59:00;8.70;99.90
8253;DHT22;61313;48.396;10.008;2022-12-29T09:01:26;8.80;99.90
8253;DHT22;61313;48.396;10.008;2022-12-29T09:03:53;8.90;99.90
8253;DHT22;61313;48.396;10.008;2022-12-29T09:06:19;9.10;99.90
8253;DHT22;61313;48.396;10.008;2022-12-29T09:08:45;9.40;99.90
8253;DHT22;61313;48.396;10.008;2022-12-29T09:11:20;9.70;99.90
8253;DHT22;61313;48.396;10.008;2022-12-29T09:13:47;10.30;99.90
8253;DHT22;61313;48.396;10.008;2022-12-29T09:16:13;10.70;99.90
8253;DHT22;61313;48.396;10.008;2022-12-29T09:18:39;11.10;99.90
8253;DHT22;61313;48.396;10.008;2022-12-29T09:21:06;11.50;99.90
8253;DHT22;61313;48.396;10.008;2022-12-29T09:23:33;12.00;99.90
8253;DHT22;61313;48.396;10.008;2022-12-29T09:25:59;12.50;99.90
8253;DHT22;61313;48.396;10.008;2022-12-29T09:28:25;12.90;99.90
8253;DHT22;61313;48.396;10.008;2022-12-29T09:30:51;13.00;99.90
8253;DHT22;61313;48.396;10.008;2022-12-29T09:33:17;12.70;99.90
8253;DHT22;61313;48.396;10.008;2022-12-29T09:35:44;12.70;99.90
8253;DHT22;61313;48.396;10.008;2022-12-29T09:38:11;12.70;99.90
8253;DHT22;61313;48.396;10.008;2022-12-29T09:40:38;12.80;99.90
8253;DHT22;61313;48.396;10.008;2022-12-29T09:51:50;10.90;99.90
8253;DHT22;61313;48.396;10.008;2022-12-29T09:54:38;10.90;99.90
8253;DHT22;61313;48.396;10.008;2022-12-29T09:57:15;11.20;99.90
8253;DHT22;61313;48.396;10.008;2022-12-29T09:59:42;11.50;99.90
8253;DHT22;61313;48.396;10.008;2022-12-29T10:02:50;11.70;99.90
8253;DHT22;61313;48.396;10.008;2022-12-29T10:08:04;11.40;99.90
8253;DHT22;61313;48.396;10.008;2022-12-29T10:14:10;11.50;99.90
8253;DHT22;61313;48.396;10.008;2022-12-29T10:16:47;11.30;99.90
8253;DHT22;61313;48.396;10.008;2022-12-29T10:24:56;12.60;1.00
8253;DHT22;61313;48.396;10.008;2022-12-29T10:27:24;13.00;99.90
8253;DHT22;61313;48.396;10.008;2022-12-29T10:29:55;12.60;99.90
8253;DHT22;61313;48.396;10.008;2022-12-29T10:32:23;12.30;99.90
8253;DHT22;61313;48.396;10.008;2022-12-29T10:34:55;12.20;99.90
8253;DHT22;61313;48.396;10.008;2022-12-29T10:37:45;12.40;99.90
8253;DHT22;61313;48.396;10.008;2022-12-29T10:40:22;12.40;99.90
8253;DHT22;61313;48.396;10.008;2022-12-29T10:42:54;12.50;99.90
8253;DHT22;61313;48.396;10.008;2022-12-29T10:45:24;12.80;99.90
8253;DHT22;61313;48.396;10.008;2022-12-29T10:48:24;13.10;99.90
8253;DHT22;61313;48.396;10.008;2022-12-29T10:50:54;13.20;99.90
8253;DHT22;61313;48.396;10.008;2022-12-29T10:53:45;12.90;99.90
8253;DHT22;61313;48.396;10.008;2022-12-29T10:58:49;12.70;99.90
8253;DHT22;61313;48.396;10.008;2022-12-29T11:01:16;12.70;99.90
8253;DHT22;61313;48.396;10.008;2022-12-29T11:03:54;12.60;99.90
8253;DHT22;61313;48.396;10.008;2022-12-29T11:06:28;12.50;99.90
8253;DHT22;61313;48.396;10.008;2022-12-29T11:09:16;12.40;99.90
8253;DHT22;61313;48.396;10.008;2022-12-29T11:11:44;12.20;99.90
8253;DHT22;61313;48.396;10.008;2022-12-29T11:16:39;12.20;99.90
8253;DHT22;61313;48.396;10.008;2022-12-29T11:19:22;12.20;99.90
8253;DHT22;61313;48.396;10.008;2022-12-29T11:21:49;12.20;99.90
8253;DHT22;61313;48.396;10.008;2022-12-29T11:24:24;12.30;99.90
8253;DHT22;61313;48.396;10.008;2022-12-29T11:26:53;12.40;99.90
8253;DHT22;61313;48.396;10.008;2022-12-29T11:29:28;12.40;99.90
8253;DHT22;61313;48.396;10.008;2022-12-29T11:31:56;12.30;99.90
8253;DHT22;61313;48.396;10.008;2022-12-29T11:34:34;12.20;99.90
8253;DHT22;61313;48.396;10.008;2022-12-29T11:42:41;12.10;99.90
8253;DHT22;61313;48.396;10.008;2022-12-29T11:47:48;12.00;99.90
8253;DHT22;61313;48.396;10.008;2022-12-29T11:50:23;12.10;99.90
8253;DHT22;61313;48.396;10.008;2022-12-29T11:55:28;12.20;99.90
8253;DHT22;61313;48.396;10.008;2022-12-29T11:57:56;12.20;99.90
8253;DHT22;61313;48.396;10.008;2022-12-29T12:00:24;12.20;99.90
8253;DHT22;61313;48.396;10.008;2022-12-29T12:03:00;12.40;99.90
8253;DHT22;61313;48.396;10.008;2022-12-29T12:11:16;13.20;99.90
8253;DHT22;61313;48.396;10.008;2022-12-29T12:16:37;14.60;99.90
8253;DHT22;61313;48.396;10.008;2022-12-29T12:19:16;15.40;99.90
8253;DHT22;61313;48.396;10.008;2022-12-29T12:21:50;15.80;99.90
8253;DHT22;61313;48.396;10.008;2022-12-29T12:49:26;15.40;99.90
8253;DHT22;61313;48.396;10.008;2022-12-29T13:00:07;13.50;99.90
8253;DHT22;61313;48.396;10.008;2022-12-29T13:14:06;12.70;99.90
8253;DHT22;61313;48.396;10.008;2022-12-29T13:19:50;12.50;99.90
8253;DHT22;61313;48.396;10.008;2022-12-29T13:22:56;12.40;99.90
8253;DHT22;61313;48.396;10.008;2022-12-29T13:34:38;12.30;99.90
8253;DHT22;61313;48.396;10.008;2022-12-29T13:36:51;12.30;99.90
8253;DHT22;61313;48.396;10.008;2022-12-29T13:41:59;12.20;99.90
8253;DHT22;61313;48.396;10.008;2022-12-29T13:44:41;12.20;99.90
8253;DHT22;61313;48.396;10.008;2022-12-29T13:47:44;12.10;99.90
8253;DHT22;61313;48.396;10.008;2022-12-29T13:50:20;12.10;99.90
8253;DHT22;61313;48.396;10.008;2022-12-29T13:55:41;12.00;99.90
8253;DHT22;61313;48.396;10.008;2022-12-29T14:01:20;12.00;99.90
8253;DHT22;61313;48.396;10.008;2022-12-29T14:03:56;11.90;99.90
8253;DHT22;61313;48.396;10.008;2022-12-29T14:06:23;11.90;99.90
8253;DHT22;61313;48.396;10.008;2022-12-29T14:08:55;12.00;99.90
8253;DHT22;61313;48.396;10.008;2022-12-29T14:13:56;11.90;99.90
8253;DHT22;61313;48.396;10.008;2022-12-29T14:16:27;11.90;99.90
8253;DHT22;61313;48.396;10.008;2022-12-29T14:18:55;11.80;99.90
8253;DHT22;61313;48.396;10.008;2022-12-29T14:21:25;11.80;99.90
8253;DHT22;61313;48.396;10.008;2022-12-29T14:24:26;11.80;99.90
8253;DHT22;61313;48.396;10.008;2022-12-29T14:26:46;11.90;99.90
8253;DHT22;61313;48.396;10.008;2022-12-29T14:31:53;12.00;99.90
8253;DHT22;61313;48.396;10.008;2022-12-29T14:37:01;12.00;99.90
8253;DHT22;61313;48.396;10.008;2022-12-29T14:39:40;12.00;99.90
8253;DHT22;61313;48.396;10.008;2022-12-29T14:42:13;12.00;99.90
8253;DHT22;61313;48.396;10.008;2022-12-29T14:44:55;12.00;99.90
8253;DHT22;61313;48.396;10.008;2022-12-29T14:47:38;11.90;99.90
8253;DHT22;61313;48.396;10.008;2022-12-29T14:57:58;11.90;99.90
8253;DHT22;61313;48.396;10.008;2022-12-29T15:00:30;11.80;99.90
8253;DHT22;61313;48.396;10.008;2022-12-29T15:03:12;11.80;99.90
8253;DHT22;61313;48.396;10.008;2022-12-29T15:06:06;11.80;99.90
8253;DHT22;61313;48.396;10.008;2022-12-29T15:08:38;11.80;99.90
8253;DHT22;61313;48.396;10.008;2022-12-29T15:11:53;11.80;99.90
8253;DHT22;61313;48.396;10.008;2022-12-29T15:14:38;11.70;99.90
8253;DHT22;61313;48.396;10.008;2022-12-29T15:19:51;11.70;99.90
8253;DHT22;61313;48.396;10.008;2022-12-29T15:22:17;11.60;1.00
8253;DHT22;61313;48.396;10.008;2022-12-29T15:24:43;11.70;1.00
8253;DHT22;61313;48.396;10.008;2022-12-29T15:27:14;11.70;1.00
8253;DHT22;61313;48.396;10.008;2022-12-29T15:29:42;11.60;1.00
8253;DHT22;61313;48.396;10.008;2022-12-29T15:32:23;11.60;1.00
8253;DHT22;61313;48.396;10.008;2022-12-29T15:34:58;11.50;1.00
8253;DHT22;61313;48.396;10.008;2022-12-29T15:37:37;11.50;1.00
8253;DHT22;61313;48.396;10.008;2022-12-29T15:40:03;11.50;1.00
8253;DHT22;61313;48.396;10.008;2022-12-29T15:45:20;11.40;1.00
8253;DHT22;61313;48.396;10.008;2022-12-29T15:47:48;11.40;1.00
8253;DHT22;61313;48.396;10.008;2022-12-29T15:52:46;11.40;1.00
8253;DHT22;61313;48.396;10.008;2022-12-29T15:55:28;11.40;1.00
8253;DHT22;61313;48.396;10.008;2022-12-29T15:58:00;11.30;1.00
8253;DHT22;61313;48.396;10.008;2022-12-29T16:00:29;11.30;1.00
8253;DHT22;61313;48.396;10.008;2022-12-29T16:02:57;11.20;1.00
8253;DHT22;61313;48.396;10.008;2022-12-29T16:05:23;11.20;1.00
8253;DHT22;61313;48.396;10.008;2022-12-29T16:07:58;11.20;1.00
8253;DHT22;61313;48.396;10.008;2022-12-29T16:13:15;11.20;1.00
8253;DHT22;61313;48.396;10.008;2022-12-29T16:15:47;11.10;1.00
8253;DHT22;61313;48.396;10.008;2022-12-29T16:18:33;11.20;1.00
8253;DHT22;61313;48.396;10.008;2022-12-29T16:21:00;11.10;1.00
8253;DHT22;61313;48.396;10.008;2022-12-29T16:23:28;11.10;1.00
8253;DHT22;61313;48.396;10.008;2022-12-29T16:25:56;11.20;1.00
8253;DHT22;61313;48.396;10.008;2022-12-29T16:28:27;11.10;1.00
8253;DHT22;61313;48.396;10.008;2022-12-29T16:30:59;11.00;1.00
8253;DHT22;61313;48.396;10.008;2022-12-29T16:33:44;11.10;1.00
8253;DHT22;61313;48.396;10.008;2022-12-29T16:36:34;11.00;9.90
8253;DHT22;61313;48.396;10.008;2022-12-29T16:41:56;10.80;99.90
8253;DHT22;61313;48.396;10.008;2022-12-29T16:44:30;10.80;99.90
8253;DHT22;61313;48.396;10.008;2022-12-29T16:49:37;10.80;99.90
8253;DHT22;61313;48.396;10.008;2022-12-29T16:52:21;10.80;99.90
8253;DHT22;61313;48.396;10.008;2022-12-29T16:54:56;10.70;99.90
8253;DHT22;61313;48.396;10.008;2022-12-29T16:57:30;10.70;99.90
8253;DHT22;61313;48.396;10.008;2022-12-29T16:59:59;10.70;99.90
8253;DHT22;61313;48.396;10.008;2022-12-29T17:02:28;10.70;99.90
8253;DHT22;61313;48.396;10.008;2022-12-29T17:04:54;10.60;99.90
8253;DHT22;61313;48.396;10.008;2022-12-29T17:07:22;10.70;54.50
8253;DHT22;61313;48.396;10.008;2022-12-29T17:09:49;10.60;36.60
8253;DHT22;61313;48.396;10.008;2022-12-29T17:12:25;10.60;99.90
8253;DHT22;61313;48.396;10.008;2022-12-29T17:17:32;10.60;1.00
8253;DHT22;61313;48.396;10.008;2022-12-29T17:20:05;10.60;1.00
8253;DHT22;61313;48.396;10.008;2022-12-29T17:22:31;10.50;6.00
8253;DHT22;61313;48.396;10.008;2022-12-29T17:24:59;10.40;60.00
8253;DHT22;61313;48.396;10.008;2022-12-29T17:27:35;10.40;98.70
8253;DHT22;61313;48.396;10.008;2022-12-29T17:30:10;10.40;57.10
8253;DHT22;61313;48.396;10.008;2022-12-29T17:32:37;10.40;99.90
8253;DHT22;61313;48.396;10.008;2022-12-29T17:35:03;10.40;99.90
8253;DHT22;61313;48.396;10.008;2022-12-29T17:37:34;10.40;99.90
8253;DHT22;61313;48.396;10.008;2022-12-29T17:40:02;10.40;99.90
8253;DHT22;61313;48.396;10.008;2022-12-29T17:42:29;10.40;41.60
8253;DHT22;61313;48.396;10.008;2022-12-29T17:44:57;10.40;38.80
8253;DHT22;61313;48.396;10.008;2022-12-29T17:47:23;10.40;20.90
8253;DHT22;61313;48.396;10.008;2022-12-29T17:49:49;10.40;9.40
8253;DHT22;61313;48.396;10.008;2022-12-29T17:52:16;10.50;1.00
8253;DHT22;61313;48.396;10.008;2022-12-29T17:54:45;10.40;1.00
8253;DHT22;61313;48.396;10.008;2022-12-29T17:57:14;10.40;1.00
8253;DHT22;61313;48.396;10.008;2022-12-29T17:59:40;10.50;1.00
8253;DHT22;61313;48.396;10.008;2022-12-29T18:02:24;10.40;1.00
8253;DHT22;61313;48.396;10.008;2022-12-29T18:04:50;10.70;1.00
8253;DHT22;61313;48.396;10.008;2022-12-29T18:07:16;10.70;1.00
8253;DHT22;61313;48.396;10.008;2022-12-29T18:09:42;10.90;84.00
8253;DHT22;61313;48.396;10.008;2022-12-29T18:14:51;10.60;1.00
8253;DHT22;61313;48.396;10.008;2022-12-29T18:17:17;10.50;1.00
8253;DHT22;61313;48.396;10.008;2022-12-29T18:19:42;10.50;1.00
8253;DHT22;61313;48.396;10.008;2022-12-29T18:22:08;10.40;1.00
8253;DHT22;61313;48.396;10.008;2022-12-29T18:24:34;10.40;1.00
8253;DHT22;61313;48.396;10.008;2022-12-29T18:27:00;10.30;16.30
8253;DHT22;61313;48.396;10.008;2022-12-29T18:29:26;10.40;11.50
8253;DHT22;61313;48.396;10.008;2022-12-29T18:31:52;10.30;37.70
8253;DHT22;61313;48.396;10.008;2022-12-29T18:34:19;10.30;90.30
8253;DHT22;61313;48.396;10.008;2022-12-29T18:36:44;10.30;47.20
8253;DHT22;61313;48.396;10.008;2022-12-29T18:39:11;10.30;90.80
8253;DHT22;61313;48.396;10.008;2022-12-29T18:41:37;10.40;4.00
8253;DHT22;61313;48.396;10.008;2022-12-29T18:44:02;10.40;1.00
8253;DHT22;61313;48.396;10.008;2022-12-29T18:46:28;10.40;40.30
8253;DHT22;61313;48.396;10.008;2022-12-29T18:48:54;10.40;65.00
8253;DHT22;61313;48.396;10.008;2022-12-29T18:51:24;10.30;99.90
8253;DHT22;61313;48.396;10.008;2022-12-29T18:53:50;10.40;92.50
8253;DHT22;61313;48.396;10.008;2022-12-29T18:56:18;10.40;99.90
8253;DHT22;61313;48.396;10.008;2022-12-29T18:58:45;10.40;76.80
8253;DHT22;61313;48.396;10.008;2022-12-29T19:01:25;10.40;85.30
8253;DHT22;61313;48.396;10.008;2022-12-29T19:03:52;10.40;99.90
8253;DHT22;61313;48.396;10.008;2022-12-29T19:06:19;10.40;99.90
8253;DHT22;61313;48.396;10.008;2022-12-29T19:08:45;10.30;99.90
8253;DHT22;61313;48.396;10.008;2022-12-29T19:11:11;10.30;99.90
8253;DHT22;61313;48.396;10.008;2022-12-29T19:13:37;10.30;99.90
8253;DHT22;61313;48.396;10.008;2022-12-29T19:16:03;10.20;99.90